createdAt,value
2023-03-28T00:00:14.774Z,548
2023-03-28T00:01:16.892Z,548.1
2023-03-28T00:02:18.994Z,548.3
2023-03-28T00:03:21.184Z,548.2
2023-03-28T00:04:23.585Z,547.9
2023-03-28T00:05:26.162Z,548.2
2023-03-28T00:06:28.646Z,548.3
2023-03-28T00:07:30.764Z,548.7
2023-03-28T00:08:32.925Z,548.2
2023-03-28T00:09:34.635Z,548
2023-03-28T00:10:36.733Z,547.5
2023-03-28T00:11:38.414Z,547.8
2023-03-28T00:12:40.568Z,547.6
2023-03-28T00:13:42.498Z,547.5
2023-03-28T00:14:44.410Z,547.6
2023-03-28T00:15:46.652Z,547.7
2023-03-28T00:16:48.822Z,547.5
2023-03-28T00:17:51.301Z,547.4
2023-03-28T00:18:53.241Z,547.5
2023-03-28T00:19:55.382Z,547.7
2023-03-28T00:20:57.510Z,547.4
2023-03-28T00:21:59.658Z,547
2023-03-28T00:23:01.803Z,547.2
2023-03-28T00:24:03.987Z,547.1
2023-03-28T00:25:05.684Z,546.6
2023-03-28T00:26:07.895Z,546.6
2023-03-28T00:27:10.068Z,546.5
2023-03-28T00:28:12.102Z,546.4
2023-03-28T00:29:14.321Z,546.6
2023-03-28T00:30:16.204Z,546.5
2023-03-28T00:31:18.537Z,546.4
2023-03-28T00:32:20.682Z,546.3
2023-03-28T00:33:22.587Z,545.9
2023-03-28T00:34:24.458Z,546.3
2023-03-28T00:35:26.704Z,546.2
2023-03-28T00:36:28.814Z,545.8
2023-03-28T00:38:36.506Z,546
2023-03-28T00:39:38.373Z,545.9
2023-03-28T00:40:40.505Z,545.6
2023-03-28T00:41:42.619Z,545.9
2023-03-28T00:42:44.327Z,545.7
2023-03-28T00:43:46.362Z,545.4
2023-03-28T00:44:48.332Z,545.2
2023-03-28T00:46:55.444Z,545.3
2023-03-28T00:47:57.712Z,545
2023-03-28T00:48:59.864Z,545.3
2023-03-28T00:50:02.019Z,545.5
2023-03-28T00:51:04.219Z,545.3
2023-03-28T00:52:06.324Z,545.3
2023-03-28T00:53:08.208Z,545.2
2023-03-28T00:54:10.115Z,545.1
2023-03-28T00:55:12.188Z,545.1
2023-03-28T00:56:14.273Z,545
2023-03-28T00:57:16.596Z,545.4
2023-03-28T00:58:18.409Z,545.4
2023-03-28T00:59:20.590Z,545.1
2023-03-28T01:00:22.787Z,545
2023-03-28T01:01:24.875Z,545.1
2023-03-28T01:02:27.350Z,545.3
2023-03-28T01:03:30.172Z,545.3
2023-03-28T01:04:32.336Z,545.1
2023-03-28T01:05:34.414Z,545.4
2023-03-28T01:06:36.532Z,545
2023-03-28T01:07:38.422Z,545.4
2023-03-28T01:08:40.550Z,545.2
2023-03-28T01:09:42.943Z,545.3
2023-03-28T01:10:45.018Z,545.3
2023-03-28T01:11:47.131Z,545.6
2023-03-28T01:12:49.341Z,545.2
2023-03-28T01:13:51.479Z,545.1
2023-03-28T01:14:53.895Z,545.7
2023-03-28T01:15:56.372Z,545.4
2023-03-28T01:16:58.154Z,545.3
2023-03-28T01:18:00.654Z,545.4
2023-03-28T01:19:02.850Z,545.8
2023-03-28T01:20:04.771Z,545.1
2023-03-28T01:21:06.883Z,545.2
2023-03-28T01:22:08.960Z,545
2023-03-28T01:23:11.049Z,545
2023-03-28T01:24:14.029Z,544.8
2023-03-28T01:25:15.913Z,544.8
2023-03-28T01:26:18.025Z,544.6
2023-03-28T01:27:19.910Z,544.9
2023-03-28T01:28:22.033Z,544.7
2023-03-28T01:29:24.117Z,544.7
2023-03-28T01:30:26.100Z,544.7
2023-03-28T01:31:28.276Z,544.8
2023-03-28T01:32:30.414Z,544.7
2023-03-28T01:33:32.307Z,544.5
2023-03-28T01:34:34.211Z,544.2
2023-03-28T01:35:36.530Z,544.2
2023-03-28T01:36:38.627Z,544.4
2023-03-28T01:37:40.710Z,544.5
2023-03-28T01:38:42.611Z,544.5
2023-03-28T01:39:44.742Z,544.5
2023-03-28T01:40:46.860Z,544.4
2023-03-28T01:41:48.553Z,544.2
2023-03-28T01:42:50.436Z,544.4
2023-03-28T01:43:52.142Z,543.9
2023-03-28T01:44:54.135Z,543.9
2023-03-28T01:45:56.317Z,543.7
2023-03-28T01:46:58.327Z,543.8
2023-03-28T01:48:00.738Z,543.7
2023-03-28T01:49:02.612Z,543.2
2023-03-28T01:50:04.797Z,543.4
2023-03-28T01:51:06.875Z,543.8
2023-03-28T01:52:08.952Z,543.5
2023-03-28T01:53:11.010Z,543.3
2023-03-28T01:54:12.888Z,543.5
2023-03-28T01:55:15.023Z,543.5
2023-03-28T01:56:17.252Z,543.6
2023-03-28T01:57:19.803Z,543.5
2023-03-28T01:58:22.023Z,543.4
2023-03-28T01:59:24.159Z,543.5
2023-03-28T02:00:26.649Z,543.5
2023-03-28T02:01:29.007Z,543.3
2023-03-28T02:02:31.535Z,543.4
2023-03-28T02:03:33.584Z,543
2023-03-28T02:04:35.497Z,542.7
2023-03-28T02:05:37.608Z,543.2
2023-03-28T02:06:39.687Z,542.7
2023-03-28T02:07:41.362Z,542.2
2023-03-28T02:08:43.428Z,542.6
2023-03-28T02:09:45.343Z,542.3
2023-03-28T02:10:47.470Z,542.2
2023-03-28T02:11:49.342Z,542.2
2023-03-28T02:12:51.452Z,542
2023-03-28T02:13:53.547Z,542
2023-03-28T02:14:55.619Z,542.3
2023-03-28T02:15:58.445Z,542
2023-03-28T02:17:00.552Z,542.1
2023-03-28T02:18:02.863Z,542.1
2023-03-28T02:19:04.974Z,542.2
2023-03-28T02:20:07.088Z,542.2
2023-03-28T02:21:09.236Z,542
2023-03-28T02:22:11.140Z,541.9
2023-03-28T02:23:13.042Z,541.9
2023-03-28T02:24:14.944Z,542
2023-03-28T02:25:17.045Z,542
2023-03-28T02:26:19.114Z,541.6
2023-03-28T02:27:21.203Z,541.2
2023-03-28T02:28:22.905Z,541.4
2023-03-28T02:29:24.982Z,541
2023-03-28T02:30:26.868Z,540.6
2023-03-28T02:31:29.196Z,540.9
2023-03-28T02:32:31.642Z,540.9
2023-03-28T02:33:33.553Z,540.8
2023-03-28T02:34:35.445Z,541.2
2023-03-28T02:35:37.474Z,540.9
2023-03-28T02:36:39.612Z,541.1
2023-03-28T02:37:41.510Z,541.1
2023-03-28T02:38:43.365Z,541.2
2023-03-28T02:39:45.518Z,541.3
2023-03-28T02:40:47.676Z,541.3
2023-03-28T02:41:49.795Z,541.6
2023-03-28T02:42:51.893Z,541.5
2023-03-28T02:43:53.975Z,541.6
2023-03-28T02:44:56.030Z,541.4
2023-03-28T02:45:59.488Z,541.2
2023-03-28T02:47:02.997Z,541.2
2023-03-28T02:48:05.129Z,541.4
2023-03-28T02:49:07.281Z,541.5
2023-03-28T02:50:09.191Z,541.5
2023-03-28T02:51:11.274Z,541.5
2023-03-28T02:52:13.389Z,541.3
2023-03-28T02:53:15.210Z,541.3
2023-03-28T02:54:17.214Z,541.1
2023-03-28T02:55:19.425Z,541
2023-03-28T02:56:20.979Z,541.1
2023-03-28T02:57:22.924Z,541
2023-03-28T02:58:24.999Z,541.1
2023-03-28T02:59:26.916Z,540.8
2023-03-28T03:00:28.815Z,540.8
2023-03-28T03:01:31.139Z,540.7
2023-03-28T03:02:33.519Z,540.9
2023-03-28T03:03:35.974Z,540.5
2023-03-28T03:04:38.113Z,540.6
2023-03-28T03:05:40.054Z,540.9
2023-03-28T03:06:41.945Z,540.4
2023-03-28T03:07:43.696Z,540
2023-03-28T03:08:45.829Z,540.3
2023-03-28T03:09:47.946Z,540.3
2023-03-28T03:10:49.850Z,540.2
2023-03-28T03:11:51.928Z,540.3
2023-03-28T03:12:53.826Z,540.4
2023-03-28T03:13:55.808Z,540.5
2023-03-28T03:14:57.877Z,540.4
2023-03-28T03:16:01.713Z,540.7
2023-03-28T03:17:04.053Z,540.2
2023-03-28T03:18:06.048Z,540.6
2023-03-28T03:19:08.296Z,540.4
2023-03-28T03:20:10.186Z,540.2
2023-03-28T03:21:12.280Z,540
2023-03-28T03:23:19.145Z,539.8
2023-03-28T03:24:20.831Z,540.1
2023-03-28T03:25:22.737Z,539.9
2023-03-28T03:26:24.645Z,539.9
2023-03-28T03:27:26.723Z,539.7
2023-03-28T03:28:28.730Z,539.9
2023-03-28T03:30:35.809Z,539.8
2023-03-28T03:31:37.970Z,539.8
2023-03-28T03:32:40.187Z,539.7
2023-03-28T03:33:42.078Z,539.5
2023-03-28T03:34:44.037Z,539.3
2023-03-28T03:35:46.534Z,538.7
2023-03-28T03:36:48.619Z,539.6
2023-03-28T03:37:50.695Z,539.4
2023-03-28T03:38:52.808Z,539.4
2023-03-28T03:39:54.679Z,539.4
2023-03-28T03:40:56.792Z,539.4
2023-03-28T03:41:58.915Z,539.2
2023-03-28T03:43:01.464Z,538.7
2023-03-28T03:44:03.714Z,538.8
2023-03-28T03:45:05.292Z,538.3
2023-03-28T03:46:07.439Z,538.7
2023-03-28T03:47:09.605Z,538.3
2023-03-28T03:48:11.915Z,538.4
2023-03-28T03:49:14.095Z,537.9
2023-03-28T03:50:16.314Z,538.1
2023-03-28T03:51:18.567Z,538.1
2023-03-28T03:52:20.693Z,538
2023-03-28T03:53:22.804Z,537.7
2023-03-28T03:54:24.930Z,538.1
2023-03-28T03:55:26.623Z,537.7
2023-03-28T03:56:28.727Z,537.9
2023-03-28T03:57:30.831Z,538.2
2023-03-28T03:58:32.770Z,537.6
2023-03-28T03:59:34.933Z,537.6
2023-03-28T04:00:37.000Z,537.6
2023-03-28T04:01:39.323Z,537.5
2023-03-28T04:02:42.209Z,537.3
2023-03-28T04:03:44.729Z,537.3
2023-03-28T04:04:46.656Z,537.1
2023-03-28T04:05:48.839Z,537.5
2023-03-28T04:06:50.936Z,537.1
2023-03-28T04:07:53.042Z,536.5
2023-03-28T04:08:54.995Z,536.4
2023-03-28T04:09:57.099Z,536.1
2023-03-28T04:10:58.992Z,535.9
2023-03-28T04:12:01.099Z,536.3
2023-03-28T04:13:03.010Z,536.4
2023-03-28T04:14:04.708Z,536
2023-03-28T04:15:06.808Z,535.9
2023-03-28T04:16:08.687Z,535.6
2023-03-28T04:17:10.611Z,535.5
2023-03-28T04:18:12.987Z,535.5
2023-03-28T04:19:15.172Z,536.2
2023-03-28T04:20:17.356Z,535.7
2023-03-28T04:21:19.360Z,536.2
2023-03-28T04:22:21.065Z,535.8
2023-03-28T04:23:22.948Z,535.6
2023-03-28T04:24:24.855Z,535.5
2023-03-28T04:25:26.571Z,536
2023-03-28T04:26:28.725Z,535.6
2023-03-28T04:27:30.611Z,535.4
2023-03-28T04:28:32.736Z,535.6
2023-03-28T04:29:34.667Z,535.8
2023-03-28T04:30:36.787Z,535.8
2023-03-28T04:31:39.079Z,535.4
2023-03-28T04:32:40.989Z,535.4
2023-03-28T04:33:42.738Z,535.4
2023-03-28T04:34:44.641Z,535.4
2023-03-28T04:35:46.878Z,535.5
2023-03-28T04:36:49.061Z,535.4
2023-03-28T04:37:51.266Z,535.6
2023-03-28T04:38:53.224Z,535.2
2023-03-28T04:39:55.260Z,534.9
2023-03-28T04:40:57.369Z,535.4
2023-03-28T04:41:59.508Z,535
2023-03-28T04:43:01.250Z,535.2
2023-03-28T04:44:03.438Z,535.1
2023-03-28T04:45:05.535Z,534.8
2023-03-28T04:46:07.546Z,535.1
2023-03-28T04:47:09.693Z,534.7
2023-03-28T04:48:11.488Z,534.7
2023-03-28T04:49:13.595Z,534.8
2023-03-28T04:50:15.760Z,534.6
2023-03-28T04:51:17.672Z,534.2
2023-03-28T04:52:19.880Z,534.2
2023-03-28T04:53:22.007Z,534.3
2023-03-28T04:54:23.938Z,534.2
2023-03-28T04:55:26.038Z,534.5
2023-03-28T04:56:27.970Z,534.2
2023-03-28T04:57:30.073Z,533.9
2023-03-28T04:58:32.198Z,533.3
2023-03-28T04:59:33.908Z,534.4
2023-03-28T05:00:35.804Z,534
2023-03-28T05:01:38.091Z,533.7
2023-03-28T05:02:40.263Z,534
2023-03-28T05:03:42.589Z,533.9
2023-03-28T05:04:44.296Z,533.3
2023-03-28T05:05:46.467Z,533.1
2023-03-28T05:06:48.587Z,533.3
2023-03-28T05:07:50.759Z,532.9
2023-03-28T05:08:52.917Z,532.7
2023-03-28T05:09:55.021Z,532.7
2023-03-28T05:10:57.200Z,532.5
2023-03-28T05:11:59.389Z,532.5
2023-03-28T05:13:01.312Z,532.2
2023-03-28T05:14:03.421Z,532.5
2023-03-28T05:15:05.546Z,532.5
2023-03-28T05:16:07.929Z,532
2023-03-28T05:17:10.071Z,532
2023-03-28T05:18:12.236Z,532
2023-03-28T05:19:13.945Z,532
2023-03-28T05:20:15.875Z,532.1
2023-03-28T05:21:17.561Z,532
2023-03-28T05:22:19.670Z,531.7
2023-03-28T05:23:21.633Z,531.4
2023-03-28T05:24:23.878Z,531.5
2023-03-28T05:25:26.042Z,531.4
2023-03-28T05:26:28.220Z,531.5
2023-03-28T05:27:30.410Z,531.5
2023-03-28T05:28:32.211Z,531.4
2023-03-28T05:29:34.316Z,531.6
2023-03-28T05:30:36.406Z,531.7
2023-03-28T05:31:38.521Z,531.2
2023-03-28T05:32:40.480Z,530.9
2023-03-28T05:33:42.409Z,530.9
2023-03-28T05:34:44.531Z,530.6
2023-03-28T05:35:46.856Z,530.9
2023-03-28T05:36:48.997Z,530.4
2023-03-28T05:37:51.132Z,530.6
2023-03-28T05:38:53.369Z,530.6
2023-03-28T05:39:55.334Z,530.3
2023-03-28T05:40:57.462Z,530.3
2023-03-28T05:41:59.819Z,530.5
2023-03-28T05:43:01.757Z,530.3
2023-03-28T05:44:03.900Z,530
2023-03-28T05:45:06.030Z,530.2
2023-03-28T05:46:08.208Z,530.3
2023-03-28T05:47:10.399Z,529.5
2023-03-28T05:48:12.763Z,529.8
2023-03-28T05:49:14.779Z,529.6
2023-03-28T05:50:16.895Z,529.3
2023-03-28T05:51:18.994Z,529.3
2023-03-28T05:52:21.168Z,529.2
2023-03-28T05:53:23.277Z,529.2
2023-03-28T05:54:25.438Z,529
2023-03-28T05:55:27.611Z,528.4
2023-03-28T05:56:29.696Z,528.3
2023-03-28T05:57:31.647Z,528.3
2023-03-28T05:58:33.780Z,528.4
2023-03-28T05:59:35.678Z,528.1
2023-03-28T06:00:37.850Z,528.5
2023-03-28T06:02:47.096Z,528.1
2023-03-28T06:03:49.542Z,528.1
2023-03-28T06:04:51.960Z,527.7
2023-03-28T06:05:53.900Z,527.7
2023-03-28T06:06:55.821Z,527.4
2023-03-28T06:07:57.733Z,527.4
2023-03-28T06:08:59.621Z,527.4
2023-03-28T06:10:01.906Z,527.2
2023-03-28T06:11:04.105Z,527.1
2023-03-28T06:12:06.197Z,527.2
2023-03-28T06:13:08.319Z,527.1
2023-03-28T06:14:10.594Z,526.6
2023-03-28T06:15:12.800Z,527.3
2023-03-28T06:16:14.510Z,527.1
2023-03-28T06:17:17.045Z,527.2
2023-03-28T06:18:19.220Z,526.5
2023-03-28T06:19:21.581Z,527
2023-03-28T06:20:23.369Z,526.9
2023-03-28T06:21:25.517Z,526.6
2023-03-28T06:22:27.173Z,526.8
2023-03-28T06:23:29.363Z,526.5
2023-03-28T06:24:31.471Z,525.9
2023-03-28T06:25:33.662Z,526
2023-03-28T06:26:35.827Z,525.9
2023-03-28T06:27:37.956Z,525.9
2023-03-28T06:28:39.947Z,526.1
2023-03-28T06:29:42.206Z,526
2023-03-28T06:30:43.943Z,526.1
2023-03-28T06:31:46.359Z,526.1
2023-03-28T06:32:48.791Z,525.9
2023-03-28T06:33:50.998Z,525.6
2023-03-28T06:34:52.934Z,525.8
2023-03-28T06:35:54.869Z,525.8
2023-03-28T06:36:57.020Z,525.7
2023-03-28T06:37:59.328Z,525.7
2023-03-28T06:39:01.043Z,525.3
2023-03-28T06:40:03.523Z,525.1
2023-03-28T06:41:05.753Z,525.9
2023-03-28T06:42:07.949Z,525
2023-03-28T06:43:09.476Z,524.9
2023-03-28T06:44:11.181Z,524.8
2023-03-28T06:45:13.319Z,525.6
2023-03-28T06:46:15.454Z,524.8
2023-03-28T06:47:17.417Z,525.5
2023-03-28T06:48:19.539Z,524.2
2023-03-28T06:49:21.683Z,524
2023-03-28T06:50:23.617Z,524
2023-03-28T06:51:25.553Z,524
2023-03-28T06:52:27.721Z,524.1
2023-03-28T06:53:29.984Z,524
2023-03-28T06:54:32.305Z,523.8
2023-03-28T06:55:34.439Z,523.3
2023-03-28T06:56:36.798Z,523.1
2023-03-28T06:57:38.574Z,522.7
2023-03-28T06:58:40.709Z,523.2
2023-03-28T06:59:42.885Z,523.1
2023-03-28T07:00:44.898Z,523
2023-03-28T07:01:47.050Z,522.9
2023-03-28T07:02:49.397Z,522.7
2023-03-28T07:04:56.601Z,522.5
2023-03-28T07:05:58.599Z,522.2
2023-03-28T07:07:00.715Z,522.5
2023-03-28T07:08:02.855Z,521.8
2023-03-28T07:10:09.995Z,522
2023-03-28T07:11:11.695Z,521.9
2023-03-28T07:12:13.912Z,522.2
2023-03-28T07:13:16.024Z,521.9
2023-03-28T07:14:17.986Z,521.8
2023-03-28T07:15:21.242Z,521.5
2023-03-28T07:16:23.591Z,521.8
2023-03-28T07:17:25.958Z,521.3
2023-03-28T07:18:27.678Z,521
2023-03-28T07:19:29.834Z,521.3
2023-03-28T07:20:31.926Z,521
2023-03-28T07:21:33.868Z,520.9
2023-03-28T07:22:35.984Z,521.2
2023-03-28T07:23:37.924Z,520.7
2023-03-28T07:24:40.061Z,520.6
2023-03-28T07:25:42.176Z,520.9
2023-03-28T07:26:44.254Z,520
2023-03-28T07:27:46.483Z,520
2023-03-28T07:28:48.401Z,519.6
2023-03-28T07:29:50.363Z,519.9
2023-03-28T07:30:52.234Z,519.9
2023-03-28T07:31:54.655Z,519.5
2023-03-28T07:34:02.027Z,519.2
2023-03-28T07:35:03.801Z,518.9
2023-03-28T07:36:06.139Z,519.4
2023-03-28T07:37:07.893Z,518.4
2023-03-28T07:38:10.128Z,518.4
2023-03-28T07:39:12.073Z,518.1
2023-03-28T07:40:13.851Z,518.2
2023-03-28T07:41:15.553Z,518.1
2023-03-28T07:42:17.749Z,518
2023-03-28T07:43:19.970Z,517.7
2023-03-28T07:44:22.095Z,518.3
2023-03-28T07:45:24.029Z,518.2
2023-03-28T07:46:26.644Z,517.9
2023-03-28T07:47:28.961Z,518.2
2023-03-28T07:48:31.073Z,518.3
2023-03-28T07:49:33.170Z,517.8
2023-03-28T07:50:35.005Z,518
2023-03-28T07:51:36.744Z,518.1
2023-03-28T07:52:38.812Z,518
2023-03-28T07:53:40.737Z,518.1
2023-03-28T07:54:42.861Z,517.8
2023-03-28T07:56:50.132Z,517.2
2023-03-28T07:57:52.217Z,517.4
2023-03-28T07:58:54.438Z,518
2023-03-28T07:59:56.556Z,517.7
2023-03-28T08:00:59.268Z,517.7
2023-03-28T08:02:01.628Z,517.9
2023-03-28T08:03:04.411Z,517.4
2023-03-28T08:04:07.131Z,517.9
2023-03-28T08:05:09.611Z,518
2023-03-28T08:07:16.501Z,517.7
2023-03-28T08:08:18.693Z,517.6
2023-03-28T08:09:20.664Z,517.8
2023-03-28T08:10:22.794Z,517.1
2023-03-28T08:11:24.914Z,517.5
2023-03-28T08:12:27.011Z,517
2023-03-28T08:13:29.122Z,517.5
2023-03-28T08:14:31.092Z,516.6
2023-03-28T08:15:33.123Z,516.8
2023-03-28T08:16:35.631Z,516.9
2023-03-28T08:17:37.555Z,517.3
2023-03-28T08:18:39.710Z,516.4
2023-03-28T08:19:41.820Z,516.6
2023-03-28T08:20:43.718Z,516.3
2023-03-28T08:21:45.628Z,516.4
2023-03-28T08:22:47.527Z,516.6
2023-03-28T08:23:49.434Z,516.2
2023-03-28T08:24:51.516Z,516.6
2023-03-28T08:25:53.663Z,516.1
2023-03-28T08:26:55.840Z,516.4
2023-03-28T08:27:57.957Z,516.6
2023-03-28T08:28:59.914Z,516.6
2023-03-28T08:30:02.291Z,516.1
2023-03-28T08:31:05.398Z,516.1
2023-03-28T08:32:07.750Z,516.2
2023-03-28T08:33:10.411Z,516.1
2023-03-28T08:34:12.662Z,516.1
2023-03-28T08:35:14.805Z,516.1
2023-03-28T08:36:17.470Z,515.7
2023-03-28T08:37:19.422Z,515.7
2023-03-28T08:38:21.344Z,515.6
2023-03-28T08:39:23.475Z,515.5
2023-03-28T08:40:25.452Z,515.8
2023-03-28T08:41:27.594Z,515.4
2023-03-28T08:42:29.538Z,515.3
2023-03-28T08:43:31.644Z,515.8
2023-03-28T08:44:34.012Z,515.6
2023-03-28T08:45:36.278Z,515.8
2023-03-28T08:46:38.376Z,515.4
2023-03-28T08:47:40.717Z,515
2023-03-28T08:48:42.752Z,515.2
2023-03-28T08:49:44.876Z,515.4
2023-03-28T08:50:47.000Z,515.1
2023-03-28T08:51:49.125Z,515.1
2023-03-28T08:52:50.838Z,515.4
2023-03-28T08:53:52.974Z,515.6
2023-03-28T08:54:55.062Z,515.4
2023-03-28T08:55:57.346Z,515.2
2023-03-28T08:56:59.712Z,514.9
2023-03-28T08:58:01.929Z,514.8
2023-03-28T08:59:04.081Z,515.2
2023-03-28T09:00:05.995Z,514.9
2023-03-28T09:01:08.231Z,514.8
2023-03-28T09:02:10.454Z,515
2023-03-28T09:03:13.635Z,514.4
2023-03-28T09:04:16.385Z,514.6
2023-03-28T09:06:23.580Z,514.9
2023-03-28T09:07:25.670Z,514.4
2023-03-28T09:08:27.806Z,514.7
2023-03-28T09:09:29.745Z,515
2023-03-28T09:10:31.847Z,514.8
2023-03-28T09:11:33.953Z,514.7
2023-03-28T09:12:35.844Z,514.9
2023-03-28T09:13:38.008Z,514.9
2023-03-28T09:14:39.959Z,514.7
2023-03-28T09:15:42.265Z,514.7
2023-03-28T09:16:44.753Z,514.8
2023-03-28T09:17:47.144Z,515.3
2023-03-28T09:18:49.256Z,515
2023-03-28T09:19:51.513Z,515.1
2023-03-28T09:20:53.497Z,514.8
2023-03-28T09:23:00.418Z,514.6
2023-03-28T09:24:02.552Z,514.8
2023-03-28T09:25:04.675Z,514.8
2023-03-28T09:26:06.414Z,514.7
2023-03-28T09:27:08.527Z,515.4
2023-03-28T09:28:10.656Z,515
2023-03-28T09:29:13.083Z,515.2
2023-03-28T09:30:14.803Z,514.9
2023-03-28T09:31:16.920Z,514.9
2023-03-28T09:32:19.637Z,514.8
2023-03-28T09:33:21.644Z,515.1
2023-03-28T09:34:23.755Z,515.1
2023-03-28T09:35:26.340Z,514.7
2023-03-28T09:37:33.539Z,515.5
2023-03-28T09:38:35.652Z,514.8
2023-03-28T09:39:37.820Z,515.2
2023-03-28T09:40:39.922Z,515.1
2023-03-28T09:41:42.036Z,515.2
2023-03-28T09:42:44.124Z,514.4
2023-03-28T09:43:46.038Z,515.2
2023-03-28T09:45:53.503Z,514.4
2023-03-28T09:46:55.616Z,514.8
2023-03-28T09:47:58.376Z,514.4
2023-03-28T09:49:01.163Z,515.1
2023-03-28T09:51:08.186Z,515.1
2023-03-28T09:52:10.359Z,514.3
2023-03-28T09:53:12.446Z,514.4
2023-03-28T09:54:14.573Z,514.5
2023-03-28T09:55:16.467Z,514.3
2023-03-28T09:56:18.568Z,514.2
2023-03-28T09:57:20.816Z,514.6
2023-03-28T09:58:22.775Z,514.4
2023-03-28T10:00:31.673Z,514.3
2023-03-28T10:01:34.277Z,514.6
2023-03-28T10:02:36.453Z,514.3
2023-03-28T10:03:38.895Z,514.5
2023-03-28T10:04:41.670Z,514.4
2023-03-28T10:05:43.638Z,514.3
2023-03-28T10:06:45.736Z,514.2
2023-03-28T10:07:47.915Z,514.1
2023-03-28T10:08:49.907Z,514.2
2023-03-28T10:09:52.071Z,514.7
2023-03-28T10:11:59.151Z,514.4
2023-03-28T10:13:01.249Z,514.4
2023-03-28T10:14:03.368Z,514
2023-03-28T10:15:05.509Z,514.5
2023-03-28T10:16:07.995Z,514.3
2023-03-28T10:17:09.998Z,514.4
2023-03-28T10:18:12.323Z,514.4
2023-03-28T10:19:14.627Z,513.8
2023-03-28T10:20:16.848Z,514.3
2023-03-28T10:21:19.095Z,514.7
2023-03-28T10:22:21.226Z,514.5
2023-03-28T10:23:23.166Z,514.3
2023-03-28T10:24:25.087Z,514.4
2023-03-28T10:25:27.016Z,514.4
2023-03-28T10:26:29.178Z,514.6
2023-03-28T10:27:31.331Z,515.3
2023-03-28T10:28:33.410Z,514.8
2023-03-28T10:29:35.118Z,515.1
2023-03-28T10:30:37.279Z,515.4
2023-03-28T10:31:39.835Z,515
2023-03-28T10:32:42.160Z,514.8
2023-03-28T10:33:44.338Z,515
2023-03-28T10:34:46.632Z,514.7
2023-03-28T10:35:48.965Z,514.6
2023-03-28T10:36:51.082Z,514.9
2023-03-28T10:37:53.079Z,514.9
2023-03-28T10:38:55.197Z,515
2023-03-28T10:39:57.470Z,515.2
2023-03-28T10:41:01.540Z,514.9
2023-03-28T10:42:04.089Z,515.6
2023-03-28T10:43:06.031Z,515.2
2023-03-28T10:44:08.165Z,515.1
2023-03-28T10:45:10.288Z,515.2
2023-03-28T10:46:12.327Z,515.7
2023-03-28T10:47:14.483Z,515.8
2023-03-28T10:48:16.421Z,515.1
2023-03-28T10:49:18.549Z,515.3
2023-03-28T10:50:20.806Z,515.3
2023-03-28T10:51:23.071Z,515.4
2023-03-28T10:52:25.002Z,515.3
2023-03-28T10:53:27.117Z,515.5
2023-03-28T10:54:29.228Z,515.6
2023-03-28T10:55:31.152Z,515.2
2023-03-28T10:56:33.296Z,515.5
2023-03-28T10:57:35.412Z,514.8
2023-03-28T10:58:37.555Z,515.6
2023-03-28T10:59:39.525Z,515.6
2023-03-28T11:00:41.498Z,515.8
2023-03-28T11:01:43.646Z,516.1
2023-03-28T11:02:45.965Z,516
2023-03-28T11:03:48.917Z,515.2
2023-03-28T11:04:51.141Z,515.5
2023-03-28T11:06:58.353Z,515.7
2023-03-28T11:08:00.347Z,515.6
2023-03-28T11:09:02.397Z,516.3
2023-03-28T11:10:04.531Z,515.8
2023-03-28T11:11:06.689Z,515.9
2023-03-28T11:12:14.975Z,516.2
2023-03-28T11:13:17.284Z,516.1
2023-03-28T11:14:19.410Z,516.3
2023-03-28T11:15:21.138Z,516.2
2023-03-28T11:16:23.761Z,516.7
2023-03-28T11:17:25.561Z,516.1
2023-03-28T11:19:32.489Z,516.9
2023-03-28T11:20:34.409Z,517.3
2023-03-28T11:21:36.329Z,516.9
2023-03-28T11:22:38.585Z,516.9
2023-03-28T11:23:40.709Z,517
2023-03-28T11:24:42.672Z,516.5
2023-03-28T11:25:44.433Z,516.9
2023-03-28T11:26:46.145Z,516.8
2023-03-28T11:27:48.020Z,516.8
2023-03-28T11:28:50.147Z,517.1
2023-03-28T11:29:52.048Z,516.8
2023-03-28T11:30:54.255Z,517
2023-03-28T11:31:56.769Z,516.9
2023-03-28T11:32:58.981Z,516.4
2023-03-28T11:34:01.197Z,517
2023-03-28T11:35:02.976Z,516.3
2023-03-28T11:36:05.311Z,517.3
2023-03-28T11:37:07.296Z,517
2023-03-28T11:38:09.295Z,517.1
2023-03-28T11:39:11.406Z,517.2
2023-03-28T11:40:13.880Z,517.2
2023-03-28T11:41:16.061Z,517.9
2023-03-28T11:42:18.239Z,517.5
2023-03-28T11:43:20.145Z,517.6
2023-03-28T11:44:22.078Z,518
2023-03-28T11:46:29.490Z,518.7
2023-03-28T11:47:31.609Z,518.1
2023-03-28T11:49:39.421Z,518.8
2023-03-28T11:50:41.539Z,518.9
2023-03-28T11:51:43.469Z,518.8
2023-03-28T11:52:45.579Z,519.4
2023-03-28T11:53:47.824Z,519.5
2023-03-28T11:54:49.958Z,519.5
2023-03-28T11:55:51.978Z,519.3
2023-03-28T11:56:54.244Z,519
2023-03-28T11:57:56.428Z,519.3
2023-03-28T11:58:58.566Z,519.5
2023-03-28T12:00:00.735Z,520.1
2023-03-28T12:01:04.743Z,519.6
2023-03-28T12:02:07.268Z,520.1
2023-03-28T12:03:10.049Z,520.9
2023-03-28T12:04:12.401Z,520.9
2023-03-28T12:05:14.541Z,520.3
2023-03-28T12:06:16.968Z,520.3
2023-03-28T12:07:19.069Z,520.7
2023-03-28T12:08:21.192Z,520.6
2023-03-28T12:09:23.188Z,520.4
2023-03-28T12:10:25.337Z,521.4
2023-03-28T12:11:27.308Z,521.4
2023-03-28T12:12:29.277Z,521.6
2023-03-28T12:13:31.166Z,521.3
2023-03-28T12:14:33.279Z,521
2023-03-28T12:15:35.403Z,521.4
2023-03-28T12:17:45.077Z,521.9
2023-03-28T12:18:47.054Z,521.5
2023-03-28T12:19:49.164Z,521.3
2023-03-28T12:20:50.896Z,521.8
2023-03-28T12:21:53.073Z,522.3
2023-03-28T12:22:54.848Z,522.4
2023-03-28T12:23:56.959Z,522.8
2023-03-28T12:24:59.175Z,522.4
2023-03-28T12:26:01.316Z,522.3
2023-03-28T12:27:03.239Z,522.2
2023-03-28T12:28:05.422Z,522.6
2023-03-28T12:29:07.523Z,522.4
2023-03-28T12:30:09.448Z,522.2
2023-03-28T12:31:11.945Z,522.8
2023-03-28T12:32:14.293Z,522.7
2023-03-28T12:33:16.965Z,523.1
2023-03-28T12:34:19.011Z,523
2023-03-28T12:35:21.136Z,522.9
2023-03-28T12:36:23.275Z,522.4
2023-03-28T12:37:25.422Z,523
2023-03-28T12:38:27.548Z,522.3
2023-03-28T12:39:29.488Z,522.7
2023-03-28T12:40:31.783Z,523
2023-03-28T12:41:33.699Z,523
2023-03-28T12:42:35.826Z,523.5
2023-03-28T12:43:37.610Z,522.9
2023-03-28T12:44:39.718Z,522.8
2023-03-28T12:45:42.050Z,523.1
2023-03-28T12:46:44.159Z,523.2
2023-03-28T12:47:46.508Z,522.9
2023-03-28T12:48:48.617Z,523.1
2023-03-28T12:49:50.841Z,523.1
2023-03-28T12:50:52.765Z,522.9
2023-03-28T12:51:54.899Z,523
2023-03-28T12:52:57.074Z,523.1
2023-03-28T12:53:59.299Z,523.3
2023-03-28T12:55:03.550Z,522.8
2023-03-28T12:56:05.604Z,523.2
2023-03-28T12:57:07.812Z,523.1
2023-03-28T12:58:10.062Z,522.9
2023-03-28T12:59:12.014Z,522.9
2023-03-28T13:00:13.767Z,523
2023-03-28T13:01:16.173Z,522.9
2023-03-28T13:02:18.130Z,522.5
2023-03-28T13:03:20.406Z,522.9
2023-03-28T13:04:22.625Z,522.7
2023-03-28T13:05:24.755Z,523.1
2023-03-28T13:06:26.654Z,523.1
2023-03-28T13:07:28.572Z,523.4
2023-03-28T13:08:29.987Z,522.9
2023-03-28T13:09:31.909Z,523.3
2023-03-28T13:10:33.669Z,523.2
2023-03-28T13:11:35.875Z,523.8
2023-03-28T13:12:37.601Z,523.5
2023-03-28T13:13:39.532Z,523.5
2023-03-28T13:14:41.656Z,523.3
2023-03-28T13:15:44.014Z,523.5
2023-03-28T13:16:45.980Z,524
2023-03-28T13:17:48.520Z,523.8
2023-03-28T13:18:50.470Z,523.1
2023-03-28T13:19:52.633Z,523.7
2023-03-28T13:20:54.781Z,524.1
2023-03-28T13:21:56.767Z,524.1
2023-03-28T13:22:59.153Z,523.9
2023-03-28T13:24:01.083Z,524.3
2023-03-28T13:25:04.128Z,524.7
2023-03-28T13:26:06.258Z,525.9
2023-03-28T13:27:08.508Z,524.7
2023-03-28T13:28:10.628Z,525.2
2023-03-28T13:29:12.726Z,525
2023-03-28T13:30:14.477Z,525
2023-03-28T13:32:21.413Z,525.7
2023-03-28T13:33:23.310Z,525.9
2023-03-28T13:34:25.502Z,526.4
2023-03-28T13:35:27.439Z,526.7
2023-03-28T13:36:29.711Z,526.7
2023-03-28T13:37:31.790Z,526.2
2023-03-28T13:38:33.735Z,526.5
2023-03-28T13:39:35.518Z,526.2
2023-03-28T13:40:37.622Z,526.8
2023-03-28T13:41:39.726Z,526.9
2023-03-28T13:42:41.938Z,527.2
2023-03-28T13:43:45.371Z,527.4
2023-03-28T13:44:47.444Z,527.4
2023-03-28T13:45:49.562Z,526.6
2023-03-28T13:46:51.887Z,527.4
2023-03-28T13:48:58.727Z,527.4
2023-03-28T13:50:00.415Z,526.9
2023-03-28T13:51:03.259Z,527.4